UGSB/BUS METAR and TAF weather

Enter ICAO airport designator
Station Type Date Time Source
UGSB METAR 2020/12/06 02:00 UTC NOAA

UGSB 060200Z 13015KT CAVOK 08/M00 Q1020 NOSIG


Station Type Date Time Source
UGSB Decoded METAR 2020/12/06 02:00 UTC NOAA

Station name not available
Dec 05, 2020 - 09:00 PM EST / 2020.12.06 0200 UTC
Wind: from the SE (130 degrees) at 17 MPH (15 KT):0
Visibility: greater than 7 mile(s):0
Temperature: 46 F (8 C)
Dew Point: 32 F (0 C)
Relative Humidity: 56%
Pressure (altimeter): 30.12 in. Hg (1020 hPa)
ob: UGSB 060200Z 13015KT CAVOK 08/M00 Q1020 NOSIG
cycle: 2

Station Type Date Time Source
UGSB TAF 2020/12/05 18:01 UTC NOAA

TAF UGSB 051700Z 0518/0618 12016KT CAVOK TX14/0609Z TN09/0602Z
TEMPO 0603/0615 FEW030 SCT100
BECMG 0608/0610 30007KT PROB40
TEMPO 0612/0615 SHRA SCT025CB
BECMG 0614/0616 13010KT

Example: see airport list